sensor_id;sensor_type;location;lat;lon;timestamp;temperature;humidity
15184;DHT22;7693;49.266;7.104;2023-02-17T00:02:04;9.60;99.90
15184;DHT22;7693;49.266;7.104;2023-02-17T00:04:31;9.60;99.90
15184;DHT22;7693;49.266;7.104;2023-02-17T00:06:58;9.60;99.90
15184;DHT22;7693;49.266;7.104;2023-02-17T00:09:24;9.60;99.90
15184;DHT22;7693;49.266;7.104;2023-02-17T00:11:50;9.60;99.90
15184;DHT22;7693;49.266;7.104;2023-02-17T00:14:17;9.60;99.90
15184;DHT22;7693;49.266;7.104;2023-02-17T00:16:43;9.60;99.90
15184;DHT22;7693;49.266;7.104;2023-02-17T00:19:09;9.70;99.90
15184;DHT22;7693;49.266;7.104;2023-02-17T07:28:26;9.50;99.90
15184;DHT22;7693;49.266;7.104;2023-02-17T07:30:51;9.50;99.90
15184;DHT22;7693;49.266;7.104;2023-02-17T07:33:17;9.50;99.90
15184;DHT22;7693;49.266;7.104;2023-02-17T07:35:43;9.50;99.90
15184;DHT22;7693;49.266;7.104;2023-02-17T07:38:08;9.60;99.90
15184;DHT22;7693;49.266;7.104;2023-02-17T07:40:34;9.60;99.90
15184;DHT22;7693;49.266;7.104;2023-02-17T07:42:59;9.60;99.90
15184;DHT22;7693;49.266;7.104;2023-02-17T07:45:25;9.70;99.90
15184;DHT22;7693;49.266;7.104;2023-02-17T07:47:50;9.70;99.90
15184;DHT22;7693;49.266;7.104;2023-02-17T07:50:16;9.70;99.90
15184;DHT22;7693;49.266;7.104;2023-02-17T07:52:42;9.70;99.90
15184;DHT22;7693;49.266;7.104;2023-02-17T07:55:07;9.70;99.90
15184;DHT22;7693;49.266;7.104;2023-02-17T07:57:33;9.80;99.90
15184;DHT22;7693;49.266;7.104;2023-02-17T07:59:58;9.80;99.90
15184;DHT22;7693;49.266;7.104;2023-02-17T08:02:24;9.80;99.90
15184;DHT22;7693;49.266;7.104;2023-02-17T08:04:50;9.80;99.90
15184;DHT22;7693;49.266;7.104;2023-02-17T08:07:17;9.80;99.90
15184;DHT22;7693;49.266;7.104;2023-02-17T08:09:42;9.80;99.90
15184;DHT22;7693;49.266;7.104;2023-02-17T08:12:26;9.80;99.90
15184;DHT22;7693;49.266;7.104;2023-02-17T08:15:11;9.90;99.90
15184;DHT22;7693;49.266;7.104;2023-02-17T08:17:37;9.90;99.90
15184;DHT22;7693;49.266;7.104;2023-02-17T08:20:03;9.90;99.90
15184;DHT22;7693;49.266;7.104;2023-02-17T08:22:29;9.90;99.90
15184;DHT22;7693;49.266;7.104;2023-02-17T08:24:55;9.90;99.90
15184;DHT22;7693;49.266;7.104;2023-02-17T08:27:20;9.90;99.90
15184;DHT22;7693;49.266;7.104;2023-02-17T08:29:46;9.90;99.90
15184;DHT22;7693;49.266;7.104;2023-02-17T08:32:14;9.90;99.90
15184;DHT22;7693;49.266;7.104;2023-02-17T08:34:40;9.90;99.90
15184;DHT22;7693;49.266;7.104;2023-02-17T08:37:06;9.90;99.90
15184;DHT22;7693;49.266;7.104;2023-02-17T08:39:33;9.90;99.90
15184;DHT22;7693;49.266;7.104;2023-02-17T08:41:59;9.90;99.90
15184;DHT22;7693;49.266;7.104;2023-02-17T08:44:24;9.90;99.90
15184;DHT22;7693;49.266;7.104;2023-02-17T08:46:51;9.90;99.90
15184;DHT22;7693;49.266;7.104;2023-02-17T08:49:22;9.90;99.90
15184;DHT22;7693;49.266;7.104;2023-02-17T08:51:49;9.90;99.90
15184;DHT22;7693;49.266;7.104;2023-02-17T08:54:15;9.90;99.90
15184;DHT22;7693;49.266;7.104;2023-02-17T08:56:41;9.90;99.90
15184;DHT22;7693;49.266;7.104;2023-02-17T08:59:09;9.90;99.90
15184;DHT22;7693;49.266;7.104;2023-02-17T09:01:35;9.90;99.90
15184;DHT22;7693;49.266;7.104;2023-02-17T09:04:04;9.90;99.90
15184;DHT22;7693;49.266;7.104;2023-02-17T09:08:57;9.90;99.90
15184;DHT22;7693;49.266;7.104;2023-02-17T09:11:23;9.90;99.90
15184;DHT22;7693;49.266;7.104;2023-02-17T09:13:49;9.90;99.90
15184;DHT22;7693;49.266;7.104;2023-02-17T09:16:14;9.90;99.90
15184;DHT22;7693;49.266;7.104;2023-02-17T09:18:40;9.90;99.90
15184;DHT22;7693;49.266;7.104;2023-02-17T09:21:10;9.90;99.90
15184;DHT22;7693;49.266;7.104;2023-02-17T09:23:36;9.90;99.90
15184;DHT22;7693;49.266;7.104;2023-02-17T09:26:05;10.00;99.90
15184;DHT22;7693;49.266;7.104;2023-02-17T09:28:31;10.00;99.90
15184;DHT22;7693;49.266;7.104;2023-02-17T09:30:57;10.00;99.90
15184;DHT22;7693;49.266;7.104;2023-02-17T09:33:23;10.00;99.90
15184;DHT22;7693;49.266;7.104;2023-02-17T09:35:48;10.00;99.90
15184;DHT22;7693;49.266;7.104;2023-02-17T09:38:15;10.00;99.90
15184;DHT22;7693;49.266;7.104;2023-02-17T09:40:44;10.00;99.90
15184;DHT22;7693;49.266;7.104;2023-02-17T09:43:21;10.00;99.90
15184;DHT22;7693;49.266;7.104;2023-02-17T09:45:54;10.10;99.90
15184;DHT22;7693;49.266;7.104;2023-02-17T09:48:22;10.10;99.90
15184;DHT22;7693;49.266;7.104;2023-02-17T09:51:07;10.10;99.90
15184;DHT22;7693;49.266;7.104;2023-02-17T09:53:47;10.10;99.90
15184;DHT22;7693;49.266;7.104;2023-02-17T09:56:19;10.10;99.90
15184;DHT22;7693;49.266;7.104;2023-02-17T09:58:50;10.10;99.90
15184;DHT22;7693;49.266;7.104;2023-02-17T10:01:25;10.20;99.90
15184;DHT22;7693;49.266;7.104;2023-02-17T10:03:56;10.20;99.90
15184;DHT22;7693;49.266;7.104;2023-02-17T10:06:28;10.10;99.90
15184;DHT22;7693;49.266;7.104;2023-02-17T10:09:17;10.20;99.90
15184;DHT22;7693;49.266;7.104;2023-02-17T10:12:23;10.20;99.90
15184;DHT22;7693;49.266;7.104;2023-02-17T10:15:15;10.20;99.90
15184;DHT22;7693;49.266;7.104;2023-02-17T10:18:09;10.20;99.90
15184;DHT22;7693;49.266;7.104;2023-02-17T10:20:49;10.20;99.90
15184;DHT22;7693;49.266;7.104;2023-02-17T10:23:22;10.20;99.90
15184;DHT22;7693;49.266;7.104;2023-02-17T10:26:03;10.20;99.90
15184;DHT22;7693;49.266;7.104;2023-02-17T10:31:03;10.20;99.90
15184;DHT22;7693;49.266;7.104;2023-02-17T10:33:40;10.20;99.90
15184;DHT22;7693;49.266;7.104;2023-02-17T10:36:20;10.30;99.90
15184;DHT22;7693;49.266;7.104;2023-02-17T10:38:57;10.30;99.90
15184;DHT22;7693;49.266;7.104;2023-02-17T10:41:29;10.30;99.90
15184;DHT22;7693;49.266;7.104;2023-02-17T10:43:58;10.30;99.90
15184;DHT22;7693;49.266;7.104;2023-02-17T10:46:28;10.30;99.90
15184;DHT22;7693;49.266;7.104;2023-02-17T10:48:56;10.30;99.90
15184;DHT22;7693;49.266;7.104;2023-02-17T10:51:25;10.40;99.90
15184;DHT22;7693;49.266;7.104;2023-02-17T10:54:02;10.30;99.90
15184;DHT22;7693;49.266;7.104;2023-02-17T10:56:38;10.30;99.90
15184;DHT22;7693;49.266;7.104;2023-02-17T10:59:07;10.40;99.90
15184;DHT22;7693;49.266;7.104;2023-02-17T11:01:37;10.40;99.90
15184;DHT22;7693;49.266;7.104;2023-02-17T11:04:08;10.40;99.90
15184;DHT22;7693;49.266;7.104;2023-02-17T11:06:47;10.40;99.90
15184;DHT22;7693;49.266;7.104;2023-02-17T11:09:20;10.40;99.90
15184;DHT22;7693;49.266;7.104;2023-02-17T11:11:58;10.40;99.90
15184;DHT22;7693;49.266;7.104;2023-02-17T11:14:34;10.40;99.90
15184;DHT22;7693;49.266;7.104;2023-02-17T11:19:39;10.40;99.90
15184;DHT22;7693;49.266;7.104;2023-02-17T11:22:17;10.40;99.90
15184;DHT22;7693;49.266;7.104;2023-02-17T15:12:56;11.00;99.90
15184;DHT22;7693;49.266;7.104;2023-02-17T15:15:22;11.00;99.90
15184;DHT22;7693;49.266;7.104;2023-02-17T15:17:48;11.00;99.90
15184;DHT22;7693;49.266;7.104;2023-02-17T15:20:15;11.00;99.90
15184;DHT22;7693;49.266;7.104;2023-02-17T15:22:41;11.00;99.90
15184;DHT22;7693;49.266;7.104;2023-02-17T15:25:16;11.10;99.90
15184;DHT22;7693;49.266;7.104;2023-02-17T15:27:45;11.10;99.90
15184;DHT22;7693;49.266;7.104;2023-02-17T15:30:17;11.10;99.90
15184;DHT22;7693;49.266;7.104;2023-02-17T15:32:43;11.10;99.90
15184;DHT22;7693;49.266;7.104;2023-02-17T15:35:19;11.10;99.90
15184;DHT22;7693;49.266;7.104;2023-02-17T15:37:46;11.10;99.90
15184;DHT22;7693;49.266;7.104;2023-02-17T15:40:17;11.20;99.90
15184;DHT22;7693;49.266;7.104;2023-02-17T15:42:45;11.20;99.90
15184;DHT22;7693;49.266;7.104;2023-02-17T15:45:14;11.20;99.90
15184;DHT22;7693;49.266;7.104;2023-02-17T15:47:41;11.20;99.90
15184;DHT22;7693;49.266;7.104;2023-02-17T15:50:16;11.20;99.90
15184;DHT22;7693;49.266;7.104;2023-02-17T15:52:45;11.20;99.90
15184;DHT22;7693;49.266;7.104;2023-02-17T15:55:12;11.20;99.90
15184;DHT22;7693;49.266;7.104;2023-02-17T15:57:41;11.10;99.90
15184;DHT22;7693;49.266;7.104;2023-02-17T16:02:47;11.10;99.90
15184;DHT22;7693;49.266;7.104;2023-02-17T16:05:15;11.10;99.90
15184;DHT22;7693;49.266;7.104;2023-02-17T16:07:41;11.10;99.90
15184;DHT22;7693;49.266;7.104;2023-02-17T16:10:08;11.00;99.90
15184;DHT22;7693;49.266;7.104;2023-02-17T16:12:35;11.00;99.90
15184;DHT22;7693;49.266;7.104;2023-02-17T16:15:00;11.00;99.90
15184;DHT22;7693;49.266;7.104;2023-02-17T16:17:26;11.00;99.90
15184;DHT22;7693;49.266;7.104;2023-02-17T16:19:52;11.00;99.90
15184;DHT22;7693;49.266;7.104;2023-02-17T16:22:17;11.00;99.90
15184;DHT22;7693;49.266;7.104;2023-02-17T16:24:43;11.00;99.90
15184;DHT22;7693;49.266;7.104;2023-02-17T16:27:13;11.00;99.90
15184;DHT22;7693;49.266;7.104;2023-02-17T16:29:39;11.00;99.90
15184;DHT22;7693;49.266;7.104;2023-02-17T16:32:05;10.90;99.90
15184;DHT22;7693;49.266;7.104;2023-02-17T16:34:31;10.90;99.90
15184;DHT22;7693;49.266;7.104;2023-02-17T16:37:00;10.90;99.90
15184;DHT22;7693;49.266;7.104;2023-02-17T16:39:26;10.90;99.90
15184;DHT22;7693;49.266;7.104;2023-02-17T16:41:52;10.90;99.90
15184;DHT22;7693;49.266;7.104;2023-02-17T16:44:20;10.90;99.90
15184;DHT22;7693;49.266;7.104;2023-02-17T16:46:48;10.90;99.90
15184;DHT22;7693;49.266;7.104;2023-02-17T16:49:28;10.90;99.90
15184;DHT22;7693;49.266;7.104;2023-02-17T16:52:11;10.90;99.90
15184;DHT22;7693;49.266;7.104;2023-02-17T16:54:41;10.80;99.90
15184;DHT22;7693;49.266;7.104;2023-02-17T16:57:15;10.80;99.90
15184;DHT22;7693;49.266;7.104;2023-02-17T16:59:41;10.80;99.90
15184;DHT22;7693;49.266;7.104;2023-02-17T17:02:10;10.80;99.90
15184;DHT22;7693;49.266;7.104;2023-02-17T17:04:36;10.80;99.90
15184;DHT22;7693;49.266;7.104;2023-02-17T17:07:02;10.80;99.90
15184;DHT22;7693;49.266;7.104;2023-02-17T17:09:27;10.80;99.90
15184;DHT22;7693;49.266;7.104;2023-02-17T17:11:54;10.80;99.90
15184;DHT22;7693;49.266;7.104;2023-02-17T17:14:20;10.80;99.90
15184;DHT22;7693;49.266;7.104;2023-02-17T17:16:50;10.80;99.90
15184;DHT22;7693;49.266;7.104;2023-02-17T17:19:17;10.80;99.90
15184;DHT22;7693;49.266;7.104;2023-02-17T17:21:43;10.80;99.90
15184;DHT22;7693;49.266;7.104;2023-02-17T17:24:08;10.80;99.90
15184;DHT22;7693;49.266;7.104;2023-02-17T17:26:40;10.80;99.90
15184;DHT22;7693;49.266;7.104;2023-02-17T17:29:11;10.80;99.90
15184;DHT22;7693;49.266;7.104;2023-02-17T17:31:37;10.80;99.90
15184;DHT22;7693;49.266;7.104;2023-02-17T17:34:03;10.80;99.90
15184;DHT22;7693;49.266;7.104;2023-02-17T17:36:32;10.80;99.90
15184;DHT22;7693;49.266;7.104;2023-02-17T17:38:59;10.80;99.90
15184;DHT22;7693;49.266;7.104;2023-02-17T17:41:26;10.80;99.90
15184;DHT22;7693;49.266;7.104;2023-02-17T17:43:52;10.80;99.90
15184;DHT22;7693;49.266;7.104;2023-02-17T17:46:22;10.80;99.90
15184;DHT22;7693;49.266;7.104;2023-02-17T17:48:49;10.80;99.90
15184;DHT22;7693;49.266;7.104;2023-02-17T17:51:17;10.80;99.90
15184;DHT22;7693;49.266;7.104;2023-02-17T17:53:43;10.80;99.90
15184;DHT22;7693;49.266;7.104;2023-02-17T17:56:14;10.80;99.90
15184;DHT22;7693;49.266;7.104;2023-02-17T17:58:40;10.80;99.90
15184;DHT22;7693;49.266;7.104;2023-02-17T18:01:06;10.80;99.90
15184;DHT22;7693;49.266;7.104;2023-02-17T18:03:31;10.80;99.90
15184;DHT22;7693;49.266;7.104;2023-02-17T18:05:57;10.80;99.90
15184;DHT22;7693;49.266;7.104;2023-02-17T18:08:23;10.80;99.90
15184;DHT22;7693;49.266;7.104;2023-02-17T18:10:49;10.80;99.90
15184;DHT22;7693;49.266;7.104;2023-02-17T18:13:14;10.80;99.90
15184;DHT22;7693;49.266;7.104;2023-02-17T18:15:43;10.80;99.90
15184;DHT22;7693;49.266;7.104;2023-02-17T18:18:10;10.80;99.90
15184;DHT22;7693;49.266;7.104;2023-02-17T18:20:36;10.90;99.90
15184;DHT22;7693;49.266;7.104;2023-02-17T18:23:02;10.90;99.90
15184;DHT22;7693;49.266;7.104;2023-02-17T18:25:28;10.90;99.90
15184;DHT22;7693;49.266;7.104;2023-02-17T18:27:53;10.90;99.90
15184;DHT22;7693;49.266;7.104;2023-02-17T18:30:21;10.80;99.90
15184;DHT22;7693;49.266;7.104;2023-02-17T18:32:48;10.80;99.90
15184;DHT22;7693;49.266;7.104;2023-02-17T18:35:14;10.80;99.90
15184;DHT22;7693;49.266;7.104;2023-02-17T18:37:39;10.80;99.90
15184;DHT22;7693;49.266;7.104;2023-02-17T18:40:06;10.80;99.90
15184;DHT22;7693;49.266;7.104;2023-02-17T18:42:32;10.80;99.90
15184;DHT22;7693;49.266;7.104;2023-02-17T18:44:59;10.80;99.90
15184;DHT22;7693;49.266;7.104;2023-02-17T18:47:24;10.80;99.90
15184;DHT22;7693;49.266;7.104;2023-02-17T18:49:50;10.90;99.90
15184;DHT22;7693;49.266;7.104;2023-02-17T18:52:16;10.90;99.90
15184;DHT22;7693;49.266;7.104;2023-02-17T18:54:43;10.90;99.90
15184;DHT22;7693;49.266;7.104;2023-02-17T18:57:10;10.90;99.90
15184;DHT22;7693;49.266;7.104;2023-02-17T18:59:36;10.90;99.90
15184;DHT22;7693;49.266;7.104;2023-02-17T19:02:06;10.90;99.90
15184;DHT22;7693;49.266;7.104;2023-02-17T19:04:33;10.90;99.90
15184;DHT22;7693;49.266;7.104;2023-02-17T19:06:59;10.90;99.90
15184;DHT22;7693;49.266;7.104;2023-02-17T19:09:46;10.90;99.90
15184;DHT22;7693;49.266;7.104;2023-02-17T19:12:16;10.90;99.90
15184;DHT22;7693;49.266;7.104;2023-02-17T19:14:42;10.90;99.90
15184;DHT22;7693;49.266;7.104;2023-02-17T19:17:09;10.90;99.90
15184;DHT22;7693;49.266;7.104;2023-02-17T19:19:36;10.90;99.90
15184;DHT22;7693;49.266;7.104;2023-02-17T19:22:02;10.90;99.90
15184;DHT22;7693;49.266;7.104;2023-02-17T19:24:36;10.90;99.90
15184;DHT22;7693;49.266;7.104;2023-02-17T19:27:01;10.90;99.90
15184;DHT22;7693;49.266;7.104;2023-02-17T19:29:27;11.00;99.90
15184;DHT22;7693;49.266;7.104;2023-02-17T19:31:58;11.00;99.90
15184;DHT22;7693;49.266;7.104;2023-02-17T19:34:24;11.00;99.90
15184;DHT22;7693;49.266;7.104;2023-02-17T19:36:49;11.00;99.90
15184;DHT22;7693;49.266;7.104;2023-02-17T19:39:15;11.00;99.90
15184;DHT22;7693;49.266;7.104;2023-02-17T19:41:41;11.00;99.90
15184;DHT22;7693;49.266;7.104;2023-02-17T19:44:06;11.00;99.90
15184;DHT22;7693;49.266;7.104;2023-02-17T19:46:32;11.00;99.90
15184;DHT22;7693;49.266;7.104;2023-02-17T19:48:57;11.00;99.90
15184;DHT22;7693;49.266;7.104;2023-02-17T19:51:23;11.00;99.90
15184;DHT22;7693;49.266;7.104;2023-02-17T19:53:49;11.00;99.90
15184;DHT22;7693;49.266;7.104;2023-02-17T19:58:43;11.00;99.90
15184;DHT22;7693;49.266;7.104;2023-02-17T20:01:14;11.00;99.90
15184;DHT22;7693;49.266;7.104;2023-02-17T20:03:41;11.00;99.90
15184;DHT22;7693;49.266;7.104;2023-02-17T20:06:08;11.10;99.90
15184;DHT22;7693;49.266;7.104;2023-02-17T20:08:35;11.10;99.90
15184;DHT22;7693;49.266;7.104;2023-02-17T20:11:06;11.10;99.90
15184;DHT22;7693;49.266;7.104;2023-02-17T20:13:33;11.10;99.90
15184;DHT22;7693;49.266;7.104;2023-02-17T20:16:00;11.10;99.90
15184;DHT22;7693;49.266;7.104;2023-02-17T20:18:26;11.10;99.90
15184;DHT22;7693;49.266;7.104;2023-02-17T20:20:53;11.10;99.90
15184;DHT22;7693;49.266;7.104;2023-02-17T20:23:19;11.10;99.90
15184;DHT22;7693;49.266;7.104;2023-02-17T20:25:44;11.10;99.90
15184;DHT22;7693;49.266;7.104;2023-02-17T20:28:10;11.10;99.90
15184;DHT22;7693;49.266;7.104;2023-02-17T20:30:35;11.10;99.90
15184;DHT22;7693;49.266;7.104;2023-02-17T20:33:01;11.10;99.90
15184;DHT22;7693;49.266;7.104;2023-02-17T20:35:27;11.10;99.90
15184;DHT22;7693;49.266;7.104;2023-02-17T20:37:52;11.10;99.90
15184;DHT22;7693;49.266;7.104;2023-02-17T20:40:18;11.10;99.90
15184;DHT22;7693;49.266;7.104;2023-02-17T20:42:44;11.10;99.90
15184;DHT22;7693;49.266;7.104;2023-02-17T20:45:09;11.10;99.90
15184;DHT22;7693;49.266;7.104;2023-02-17T20:47:35;11.10;99.90
15184;DHT22;7693;49.266;7.104;2023-02-17T20:50:01;11.20;99.90
15184;DHT22;7693;49.266;7.104;2023-02-17T20:52:32;11.10;99.90
15184;DHT22;7693;49.266;7.104;2023-02-17T20:54:58;11.10;99.90
15184;DHT22;7693;49.266;7.104;2023-02-17T20:57:25;11.10;99.90
15184;DHT22;7693;49.266;7.104;2023-02-17T20:59:51;11.20;99.90
15184;DHT22;7693;49.266;7.104;2023-02-17T21:02:16;11.20;99.90
15184;DHT22;7693;49.266;7.104;2023-02-17T21:04:42;11.10;99.90
15184;DHT22;7693;49.266;7.104;2023-02-17T21:07:09;11.10;99.90
15184;DHT22;7693;49.266;7.104;2023-02-17T21:09:34;11.20;99.90
15184;DHT22;7693;49.266;7.104;2023-02-17T21:12:00;11.20;99.90
15184;DHT22;7693;49.266;7.104;2023-02-17T21:14:26;11.20;99.90
15184;DHT22;7693;49.266;7.104;2023-02-17T21:16:51;11.20;99.90
15184;DHT22;7693;49.266;7.104;2023-02-17T21:19:17;11.10;99.90
15184;DHT22;7693;49.266;7.104;2023-02-17T21:21:44;11.20;99.90
15184;DHT22;7693;49.266;7.104;2023-02-17T21:24:10;11.20;99.90
15184;DHT22;7693;49.266;7.104;2023-02-17T21:26:36;11.10;99.90
15184;DHT22;7693;49.266;7.104;2023-02-17T21:29:02;11.20;99.90
15184;DHT22;7693;49.266;7.104;2023-02-17T21:31:28;11.10;99.90
15184;DHT22;7693;49.266;7.104;2023-02-17T21:33:54;11.10;99.90
15184;DHT22;7693;49.266;7.104;2023-02-17T21:36:19;11.20;99.90
15184;DHT22;7693;49.266;7.104;2023-02-17T21:38:46;11.20;99.90
15184;DHT22;7693;49.266;7.104;2023-02-17T21:41:15;11.10;99.90
15184;DHT22;7693;49.266;7.104;2023-02-17T21:43:42;11.10;99.90
15184;DHT22;7693;49.266;7.104;2023-02-17T21:46:27;11.10;99.90
15184;DHT22;7693;49.266;7.104;2023-02-17T21:48:55;11.10;99.90
15184;DHT22;7693;49.266;7.104;2023-02-17T21:51:21;11.20;99.90
15184;DHT22;7693;49.266;7.104;2023-02-17T21:53:46;11.10;99.90
15184;DHT22;7693;49.266;7.104;2023-02-17T21:56:12;11.10;99.90
15184;DHT22;7693;49.266;7.104;2023-02-17T21:58:38;11.20;99.90
15184;DHT22;7693;49.266;7.104;2023-02-17T22:01:04;11.20;99.90
15184;DHT22;7693;49.266;7.104;2023-02-17T22:03:30;11.20;99.90
15184;DHT22;7693;49.266;7.104;2023-02-17T22:05:56;11.20;99.90
15184;DHT22;7693;49.266;7.104;2023-02-17T22:08:22;11.20;99.90
15184;DHT22;7693;49.266;7.104;2023-02-17T22:10:48;11.20;99.90
15184;DHT22;7693;49.266;7.104;2023-02-17T22:13:13;11.20;99.90
15184;DHT22;7693;49.266;7.104;2023-02-17T22:15:39;11.20;99.90
15184;DHT22;7693;49.266;7.104;2023-02-17T22:18:05;11.20;99.90
15184;DHT22;7693;49.266;7.104;2023-02-17T22:20:31;11.20;99.90
15184;DHT22;7693;49.266;7.104;2023-02-17T22:22:57;11.20;99.90
15184;DHT22;7693;49.266;7.104;2023-02-17T22:25:23;11.20;99.90
15184;DHT22;7693;49.266;7.104;2023-02-17T22:27:49;11.20;99.90
15184;DHT22;7693;49.266;7.104;2023-02-17T22:30:14;11.20;99.90
15184;DHT22;7693;49.266;7.104;2023-02-17T22:32:40;11.20;99.90
15184;DHT22;7693;49.266;7.104;2023-02-17T22:35:08;11.20;99.90
15184;DHT22;7693;49.266;7.104;2023-02-17T22:37:34;11.20;99.90
15184;DHT22;7693;49.266;7.104;2023-02-17T22:39:59;11.20;99.90
15184;DHT22;7693;49.266;7.104;2023-02-17T22:42:25;11.20;99.90
15184;DHT22;7693;49.266;7.104;2023-02-17T22:44:52;11.20;99.90
15184;DHT22;7693;49.266;7.104;2023-02-17T22:47:17;11.30;99.90
15184;DHT22;7693;49.266;7.104;2023-02-17T22:49:43;11.30;99.90
15184;DHT22;7693;49.266;7.104;2023-02-17T22:52:08;11.20;99.90
15184;DHT22;7693;49.266;7.104;2023-02-17T22:54:35;11.20;99.90
15184;DHT22;7693;49.266;7.104;2023-02-17T22:57:03;11.20;99.90
15184;DHT22;7693;49.266;7.104;2023-02-17T22:59:28;11.30;99.90
15184;DHT22;7693;49.266;7.104;2023-02-17T23:01:57;11.30;99.90
15184;DHT22;7693;49.266;7.104;2023-02-17T23:04:22;11.30;99.90
15184;DHT22;7693;49.266;7.104;2023-02-17T23:06:48;11.30;99.90
15184;DHT22;7693;49.266;7.104;2023-02-17T23:09:16;11.30;99.90
15184;DHT22;7693;49.266;7.104;2023-02-17T23:11:42;11.30;99.90
15184;DHT22;7693;49.266;7.104;2023-02-17T23:14:29;11.30;99.90
